PRINT OUT SECTION, show ยป

TAF EPRA 160530Z 1606/1615 26014KT 9999 SCT040
TEMPO 1607/1615 27019G29KT
PROB30 TEMPO 1613/1615 -SHRA BKN030CB=

TAF EPSY 160530Z 1606/1615 23010KT 9999 BKN030
PROB40 TEMPO 1606/1607 4000 -RA BR BKN004 BKN010
TEMPO 1607/1615 24015G25KT SHRA BKN020CB
PROB30 TEMPO 1612/1615 24020G35KT 3000 TSRA BKN005 BKN014CB=

TAF EPZG 160530Z 1606/1615 25016KT 9999 SCT040
TEMPO 1606/1615 25020G36KT SHRA BKN020CB=